Time;durP1;ratioP1;P1;durP2;ratioP2;P2;SDS_P1;SDS_P2;PMS_P1;PMS_P2;Temp;Humidity;BMP_temperature;BMP_pressure;BME280_temperature;BME280_humidity;BME280_pressure;Samples;Min_cycle;Max_cycle;Signal;HPM_P1;HPM_P2
2022/06/03 00:01:10;;;;;;;3.42;2.80;;;22.70;93.00;;;;;;6182163;28;87476;-65
2022/06/03 00:04:34;;;;;;;4.53;2.95;;;22.70;93.10;;;;;;6182077;28;87961;-65
2022/06/03 00:07:53;;;;;;;3.17;2.63;;;22.70;93.00;;;;;;6180472;28;89039;-65
2022/06/03 00:11:21;;;;;;;3.88;2.92;;;22.70;93.00;;;;;;6180526;28;90501;-65
2022/06/03 00:14:46;;;;;;;3.63;3.00;;;22.70;93.30;;;;;;6181810;28;89170;-65
2022/06/03 00:18:15;;;;;;;3.63;2.75;;;22.70;92.80;;;;;;6181510;28;88325;-65
2022/06/03 00:21:34;;;;;;;2.90;2.70;;;22.70;92.80;;;;;;6180681;28;89419;-65
2022/06/03 00:24:59;;;;;;;3.13;2.85;;;22.70;92.70;;;;;;6182108;28;89095;-64
2022/06/03 00:28:14;;;;;;;3.33;2.70;;;22.70;92.80;;;;;;6180879;28;89070;-65
2022/06/03 00:31:32;;;;;;;4.07;2.70;;;22.70;92.70;;;;;;6180749;28;89110;-65
2022/06/03 00:34:52;;;;;;;3.03;2.63;;;22.70;92.60;;;;;;6181820;28;88464;-65
2022/06/03 00:37:58;;;;;;;3.78;2.90;;;22.70;92.70;;;;;;6181156;28;89093;-64
2022/06/03 00:41:16;;;;;;;3.05;2.75;;;22.70;92.70;;;;;;6180495;28;89115;-65
2022/06/03 00:44:47;;;;;;;2.70;2.50;;;22.70;92.60;;;;;;6180859;28;89967;-65
2022/06/03 00:48:05;;;;;;;4.10;3.00;;;22.70;92.70;;;;;;6162087;28;89330;-65
2022/06/03 00:51:48;;;;;;;3.47;3.15;;;22.60;92.80;;;;;;6180865;28;89082;-65
2022/06/03 00:55:10;;;;;;;3.13;2.83;;;22.70;92.80;;;;;;6158995;28;89120;-65
2022/06/03 00:58:45;;;;;;;3.08;2.78;;;22.70;92.80;;;;;;6175460;28;89026;-65
2022/06/03 01:01:56;;;;;;;3.00;2.75;;;22.60;92.70;;;;;;6180823;28;88932;-65
2022/06/03 01:05:11;;;;;;;3.20;2.78;;;22.70;92.70;;;;;;6181093;28;89161;-64
2022/06/03 01:08:19;;;;;;;3.22;2.88;;;22.70;92.70;;;;;;6181338;28;88240;-64
2022/06/03 01:11:40;;;;;;;4.25;2.80;;;22.60;92.80;;;;;;6180854;28;89046;-64
2022/06/03 01:15:11;;;;;;;3.20;2.90;;;22.60;92.70;;;;;;6175515;28;89048;-64
2022/06/03 01:18:25;;;;;;;3.05;2.60;;;22.60;92.50;;;;;;6180871;28;90022;-64
2022/06/03 01:21:43;;;;;;;3.25;2.90;;;22.60;92.30;;;;;;6180598;28;89374;-64
2022/06/03 01:25:10;;;;;;;5.15;3.38;;;22.60;92.20;;;;;;6178799;28;89105;-65
2022/06/03 01:28:50;;;;;;;4.03;2.95;;;22.60;92.20;;;;;;6180306;28;89179;-64
2022/06/03 01:32:47;;;;;;;3.22;2.85;;;22.60;92.10;;;;;;6180002;28;89907;-64
2022/06/03 01:36:16;;;;;;;3.15;2.53;;;22.60;92.00;;;;;;6169324;28;89102;-64
2022/06/03 01:39:48;;;;;;;3.80;2.90;;;22.60;92.00;;;;;;6171688;28;89124;-64
2022/06/03 01:43:24;;;;;;;2.88;2.67;;;22.60;92.00;;;;;;6180761;28;88320;-64
2022/06/03 01:46:29;;;;;;;3.58;2.72;;;22.60;91.80;;;;;;6180780;28;89172;-65
2022/06/03 01:49:57;;;;;;;3.05;2.78;;;22.60;91.80;;;;;;6179519;28;89566;-64
2022/06/03 01:53:35;;;;;;;3.20;2.80;;;22.60;91.80;;;;;;6174299;28;90050;-64
2022/06/03 01:57:00;;;;;;;2.92;2.70;;;22.60;91.70;;;;;;6179505;28;89164;-64
2022/06/03 02:00:20;;;;;;;3.13;2.78;;;22.60;91.60;;;;;;6181359;28;92118;-64
2022/06/03 02:03:50;;;;;;;3.17;2.83;;;22.60;91.80;;;;;;6179583;28;89231;-65
2022/06/03 02:07:25;;;;;;;3.13;2.92;;;22.60;91.90;;;;;;6147651;28;90352;-64
2022/06/03 02:11:16;;;;;;;3.75;3.00;;;22.60;91.70;;;;;;6175736;28;89053;-65
2022/06/03 02:14:56;;;;;;;3.17;2.88;;;22.60;92.00;;;;;;6171119;28;89124;-65
2022/06/03 02:18:39;;;;;;;3.53;3.22;;;22.60;91.70;;;;;;6175010;28;88286;-64
2022/06/03 02:21:57;;;;;;;3.28;2.97;;;22.60;91.70;;;;;;6175872;28;89131;-64
2022/06/03 02:25:43;;;;;;;4.00;3.50;;;22.60;91.70;;;;;;6178258;28;88105;-64
2022/06/03 02:32:55;;;;;;;3.95;3.65;;;22.60;91.80;;;;;;6170484;28;87749;-65
2022/06/03 02:36:43;;;;;;;3.60;3.30;;;22.60;91.70;;;;;;6180493;28;89167;-64
2022/06/03 02:40:13;;;;;;;3.85;3.53;;;22.60;91.50;;;;;;6173965;28;89127;-65
2022/06/03 02:43:40;;;;;;;4.05;3.60;;;22.60;91.50;;;;;;6177150;28;89121;-65
2022/06/03 02:47:28;;;;;;;3.88;3.55;;;22.60;91.50;;;;;;6177485;28;89196;-65
2022/06/03 02:50:54;;;;;;;5.18;3.90;;;22.60;91.80;;;;;;6181464;28;88073;-65
2022/06/03 02:54:22;;;;;;;4.25;3.85;;;22.60;91.80;;;;;;6181576;28;89632;-64
2022/06/03 02:57:51;;;;;;;4.45;3.70;;;22.60;91.80;;;;;;6166193;28;88990;-65
2022/06/03 03:01:11;;;;;;;4.50;4.10;;;22.60;91.80;;;;;;6176134;28;89190;-65
2022/06/03 03:04:38;;;;;;;3.95;3.65;;;22.50;91.70;;;;;;6183230;28;90116;-65
2022/06/03 03:07:50;;;;;;;4.60;3.92;;;22.60;91.80;;;;;;6177639;28;89435;-64
2022/06/03 03:11:24;;;;;;;4.50;4.10;;;22.50;91.70;;;;;;6182419;28;89039;-64
2022/06/03 03:14:55;;;;;;;4.35;3.95;;;22.60;91.60;;;;;;6148543;28;90708;-65
2022/06/03 03:18:36;;;;;;;4.40;4.00;;;22.50;91.70;;;;;;6182918;28;88940;-64
2022/06/03 03:22:11;;;;;;;4.30;3.90;;;22.50;91.70;;;;;;6182203;28;89111;-64
2022/06/03 03:25:45;;;;;;;5.38;4.13;;;22.50;91.90;;;;;;6180271;28;89267;-64
2022/06/03 03:29:15;;;;;;;4.80;4.32;;;22.50;92.00;;;;;;6183219;28;88293;-65
2022/06/03 03:32:26;;;;;;;4.18;3.78;;;22.60;92.30;;;;;;6182083;28;89145;-65
2022/06/03 03:35:55;;;;;;;5.75;4.03;;;22.50;92.10;;;;;;6183185;28;89156;-65
2022/06/03 03:39:29;;;;;;;3.88;3.58;;;22.50;92.00;;;;;;6171059;28;89927;-65
2022/06/03 03:42:58;;;;;;;5.00;4.50;;;22.50;92.40;;;;;;6181593;28;89109;-65
2022/06/03 03:46:39;;;;;;;4.60;4.20;;;22.50;92.40;;;;;;6181786;28;89468;-64
2022/06/03 03:50:14;;;;;;;5.20;4.25;;;22.50;92.40;;;;;;6166954;28;89063;-65
2022/06/03 03:53:57;;;;;;;5.75;4.32;;;22.50;92.60;;;;;;6180434;28;89050;-64
2022/06/03 03:57:26;;;;;;;4.35;3.95;;;22.50;92.40;;;;;;6182632;28;90712;-64
2022/06/03 04:01:23;;;;;;;4.25;3.70;;;22.50;92.40;;;;;;6181597;28;89111;-65
2022/06/03 04:05:01;;;;;;;3.92;3.63;;;22.50;92.10;;;;;;6182560;28;88276;-65
2022/06/03 04:08:20;;;;;;;4.22;3.80;;;22.50;92.10;;;;;;6179336;28;89023;-65
2022/06/03 04:11:51;;;;;;;3.70;3.40;;;22.50;92.10;;;;;;6178418;28;89211;-65
2022/06/03 04:15:23;;;;;;;4.15;3.80;;;22.50;92.00;;;;;;6171111;28;91165;-64
2022/06/03 04:18:53;;;;;;;6.20;4.50;;;22.50;92.00;;;;;;6161689;28;89212;-64
2022/06/03 04:22:16;;;;;;;4.35;3.63;;;22.50;92.20;;;;;;6181320;28;89288;-65
2022/06/03 04:25:54;;;;;;;4.50;4.10;;;22.50;92.30;;;;;;6181428;28;88201;-65
2022/06/03 04:29:08;;;;;;;4.10;3.80;;;22.50;92.60;;;;;;6182441;28;89154;-64
2022/06/03 04:33:18;;;;;;;4.85;3.80;;;22.50;92.20;;;;;;6170454;28;88836;-65
2022/06/03 04:36:56;;;;;;;4.00;3.70;;;22.50;92.20;;;;;;6173796;28;89179;-64
2022/06/03 04:40:31;;;;;;;3.80;3.50;;;22.50;92.00;;;;;;6182179;28;87252;-64
2022/06/03 04:44:11;;;;;;;4.38;3.97;;;22.50;92.00;;;;;;6141862;28;89090;-64
2022/06/03 04:47:51;;;;;;;5.85;3.92;;;22.50;91.80;;;;;;6180671;28;89310;-64
2022/06/03 04:51:41;;;;;;;5.03;4.47;;;22.50;91.70;;;;;;6175566;28;90406;-65
2022/06/03 04:55:25;;;;;;;4.82;4.43;;;22.50;91.80;;;;;;6178540;28;89783;-65
2022/06/03 04:59:17;;;;;;;4.47;4.07;;;22.50;92.90;;;;;;6178639;28;89078;-65
2022/06/03 05:02:49;;;;;;;4.72;4.40;;;22.50;93.40;;;;;;6123173;28;89103;-64
2022/06/03 05:06:27;;;;;;;4.55;4.15;;;22.60;94.40;;;;;;6170666;28;88283;-65
2022/06/03 05:10:32;;;;;;;4.57;4.18;;;22.70;93.20;;;;;;6178034;28;89045;-64
2022/06/03 05:14:12;;;;;;;4.50;4.10;;;22.70;92.30;;;;;;6177347;28;89184;-64
2022/06/03 05:17:43;;;;;;;4.15;3.75;;;22.70;92.10;;;;;;6179730;28;88854;-65
2022/06/03 05:21:11;;;;;;;5.15;3.67;;;22.80;92.00;;;;;;6175916;28;89131;-65
2022/06/03 05:24:44;;;;;;;4.25;3.75;;;22.80;91.90;;;;;;6179297;28;89188;-64
2022/06/03 05:28:06;;;;;;;3.80;3.40;;;22.70;91.80;;;;;;6180203;28;90607;-65
2022/06/03 05:31:44;;;;;;;4.10;3.72;;;22.70;91.80;;;;;;6178434;28;89042;-64
2022/06/03 05:35:31;;;;;;;4.43;4.00;;;22.70;90.90;;;;;;6138346;28;89241;-64
2022/06/03 05:38:55;;;;;;;4.45;3.67;;;22.70;90.60;;;;;;6176197;28;89362;-64
2022/06/03 05:42:28;;;;;;;4.10;3.80;;;22.70;90.40;;;;;;6180364;28;89115;-64
2022/06/03 05:45:52;;;;;;;4.70;3.90;;;22.60;90.00;;;;;;6180816;28;89085;-64
2022/06/03 05:49:20;;;;;;;4.28;3.58;;;22.60;90.30;;;;;;6177067;28;89073;-64
2022/06/03 05:52:37;;;;;;;3.92;3.63;;;22.60;90.40;;;;;;6178311;28;88314;-64
2022/06/03 05:55:51;;;;;;;4.50;3.83;;;22.50;90.40;;;;;;6179915;28;89761;-64
2022/06/03 05:59:00;;;;;;;3.65;3.35;;;22.50;90.20;;;;;;6180620;28;89215;-64
2022/06/03 06:02:14;;;;;;;4.03;3.63;;;22.60;90.20;;;;;;6171783;28;90294;-65
2022/06/03 06:05:33;;;;;;;4.70;3.63;;;22.50;90.20;;;;;;6178639;28;87918;-65
2022/06/03 06:08:43;;;;;;;3.80;3.50;;;22.50;90.40;;;;;;6169950;28;89675;-65
2022/06/03 06:12:02;;;;;;;3.63;3.33;;;22.50;90.50;;;;;;6168556;28;87943;-64
2022/06/03 06:15:24;;;;;;;3.60;3.30;;;22.50;90.60;;;;;;6178499;28;89272;-64
2022/06/03 06:18:47;;;;;;;3.97;3.58;;;22.50;90.30;;;;;;6184635;28;89258;-65
2022/06/03 06:22:09;;;;;;;3.70;3.40;;;22.50;90.20;;;;;;6183502;28;87938;-65
2022/06/03 06:25:16;;;;;;;3.78;3.35;;;22.50;90.20;;;;;;6172689;28;88072;-65
2022/06/03 06:28:42;;;;;;;3.50;3.20;;;22.50;90.00;;;;;;6182929;28;89189;-64
2022/06/03 06:32:14;;;;;;;3.67;3.38;;;22.50;90.20;;;;;;6179464;28;89199;-64
2022/06/03 06:35:49;;;;;;;4.95;3.50;;;22.50;89.60;;;;;;6180096;28;90201;-64
2022/06/03 06:39:03;;;;;;;4.13;3.72;;;22.50;89.70;;;;;;6176197;28;89187;-63
2022/06/03 06:42:16;;;;;;;4.63;3.40;;;22.50;89.20;;;;;;6184207;28;89395;-64
2022/06/03 06:45:32;;;;;;;4.10;3.50;;;22.40;89.60;;;;;;6182987;28;88999;-63
2022/06/03 06:48:44;;;;;;;4.22;3.42;;;22.40;90.10;;;;;;6183898;28;89249;-62
2022/06/03 06:52:31;;;;;;;6.15;3.35;;;22.50;90.40;;;;;;6180714;28;89073;-64
2022/06/03 06:55:55;;;;;;;3.97;3.58;;;22.40;90.50;;;;;;6172669;28;89193;-64
2022/06/03 06:59:01;;;;;;;3.40;3.10;;;22.50;90.70;;;;;;6176198;28;89699;-63
2022/06/03 07:02:11;;;;;;;4.18;3.80;;;22.50;90.60;;;;;;6182130;28;89125;-63
2022/06/03 07:05:21;;;;;;;5.40;3.65;;;22.50;90.60;;;;;;6183123;28;89125;-63
2022/06/03 07:08:27;;;;;;;4.70;3.63;;;22.50;90.90;;;;;;6179777;28;90087;-63
2022/06/03 07:11:37;;;;;;;4.25;3.30;;;22.50;90.40;;;;;;6181516;28;88067;-63
2022/06/03 07:14:53;;;;;;;5.78;3.40;;;22.50;90.20;;;;;;6181713;28;89159;-64
2022/06/03 07:21:42;;;;;;;4.20;3.40;;;22.50;90.10;;;;;;6183126;28;86981;-63
2022/06/03 07:24:51;;;;;;;5.40;3.20;;;22.50;90.40;;;;;;6182936;28;87930;-63
2022/06/03 07:27:59;;;;;;;4.10;3.40;;;22.50;90.60;;;;;;6182808;28;89224;-63
2022/06/03 07:31:11;;;;;;;3.38;3.08;;;22.40;90.90;;;;;;6183008;28;88299;-63
2022/06/03 07:34:19;;;;;;;4.50;3.00;;;22.50;91.00;;;;;;6182498;28;87954;-63
2022/06/03 07:37:26;;;;;;;3.60;3.30;;;22.50;91.10;;;;;;6182462;28;89141;-63
2022/06/03 07:40:35;;;;;;;3.83;3.20;;;22.50;91.30;;;;;;6181241;28;90202;-63
2022/06/03 07:43:42;;;;;;;3.97;3.40;;;22.50;91.60;;;;;;6182597;28;89531;-63
2022/06/03 07:46:50;;;;;;;3.10;2.90;;;22.50;91.30;;;;;;6182630;28;89089;-63
2022/06/03 07:49:57;;;;;;;3.20;3.00;;;22.50;91.70;;;;;;6181953;28;89225;-63
2022/06/03 07:53:01;;;;;;;3.67;3.35;;;22.50;91.40;;;;;;6181787;28;90651;-63
2022/06/03 07:56:04;;;;;;;3.88;3.10;;;22.50;91.60;;;;;;6181572;28;89462;-63
2022/06/03 07:59:10;;;;;;;4.20;3.38;;;22.50;91.60;;;;;;6181949;28;90265;-63
2022/06/03 08:02:17;;;;;;;4.03;3.17;;;22.50;91.80;;;;;;6182426;28;88838;-63
2022/06/03 08:05:21;;;;;;;5.13;3.28;;;22.50;91.90;;;;;;6181822;28;89114;-63
2022/06/03 08:11:47;;;;;;;5.25;3.65;;;22.60;92.40;;;;;;6180954;28;88281;-63
2022/06/03 08:14:49;;;;;;;3.50;3.20;;;22.60;92.00;;;;;;6169064;28;90289;-63
2022/06/03 08:17:52;;;;;;;3.75;3.38;;;22.60;92.00;;;;;;6181814;28;89116;-63
2022/06/03 08:20:58;;;;;;;3.35;3.05;;;22.60;92.10;;;;;;6181941;28;89071;-64
2022/06/03 08:24:02;;;;;;;5.38;3.72;;;22.60;92.10;;;;;;6174810;28;89036;-63
2022/06/03 08:27:07;;;;;;;4.45;3.30;;;22.60;92.20;;;;;;6176794;28;89067;-63
2022/06/03 08:30:15;;;;;;;3.58;3.10;;;22.50;91.80;;;;;;6173850;28;89131;-63
2022/06/03 08:33:22;;;;;;;4.10;3.00;;;22.50;92.20;;;;;;6181423;28;88365;-63
2022/06/03 08:36:28;;;;;;;3.53;3.10;;;22.60;92.10;;;;;;6181994;28;89167;-63
2022/06/03 08:39:32;;;;;;;3.78;3.20;;;22.60;92.20;;;;;;6181519;28;89153;-63
2022/06/03 08:42:43;;;;;;;5.05;3.40;;;22.50;92.20;;;;;;6180992;28;89433;-63
2022/06/03 08:45:52;;;;;;;4.25;3.10;;;22.60;92.40;;;;;;6172301;28;89119;-63
2022/06/03 08:49:02;;;;;;;3.17;2.97;;;22.60;92.50;;;;;;6171229;28;89265;-64
2022/06/03 08:52:10;;;;;;;3.40;3.10;;;22.60;92.50;;;;;;6180680;28;88230;-63
2022/06/03 08:55:31;;;;;;;3.40;3.10;;;22.60;92.50;;;;;;6178978;28;89091;-63
2022/06/03 08:58:43;;;;;;;3.47;3.20;;;22.60;92.70;;;;;;6179501;28;89054;-63
2022/06/03 09:01:52;;;;;;;3.50;3.20;;;22.60;92.80;;;;;;6170316;28;89126;-63
2022/06/03 09:05:01;;;;;;;3.00;2.80;;;22.60;93.00;;;;;;6181238;28;88494;-63
2022/06/03 09:08:13;;;;;;;3.33;3.03;;;22.60;93.30;;;;;;6180636;28;88088;-63
2022/06/03 09:11:20;;;;;;;3.85;3.50;;;22.70;93.10;;;;;;6180503;28;87973;-63
2022/06/03 09:14:24;;;;;;;3.58;3.28;;;22.70;92.90;;;;;;6171489;28;89997;-63
2022/06/03 09:17:37;;;;;;;3.65;2.95;;;22.70;92.90;;;;;;6180063;28;89139;-63
2022/06/03 09:20:45;;;;;;;3.85;3.17;;;22.70;93.10;;;;;;6179465;28;89318;-64
2022/06/03 09:23:54;;;;;;;4.05;3.50;;;22.60;93.30;;;;;;6180656;28;89215;-64
2022/06/03 09:26:58;;;;;;;4.03;3.65;;;22.60;93.70;;;;;;6170985;28;87787;-63
2022/06/03 09:30:04;;;;;;;3.83;3.45;;;22.60;93.70;;;;;;6181026;28;89096;-63
2022/06/03 09:33:08;;;;;;;3.30;3.00;;;22.60;93.90;;;;;;6179723;28;89083;-64
2022/06/03 09:36:13;;;;;;;3.40;3.10;;;22.70;93.60;;;;;;6179969;28;88350;-63
2022/06/03 09:39:20;;;;;;;4.00;3.30;;;22.70;93.80;;;;;;6180214;28;89108;-63
2022/06/03 09:42:23;;;;;;;3.40;3.10;;;22.60;93.70;;;;;;6180839;28;89487;-64
2022/06/03 09:45:26;;;;;;;3.22;2.92;;;22.60;93.70;;;;;;6179153;28;90097;-63
2022/06/03 09:48:31;;;;;;;3.30;3.00;;;22.60;93.70;;;;;;6178273;28;89136;-64
2022/06/03 09:51:59;;;;;;;3.70;3.40;;;22.60;93.60;;;;;;6188050;28;87939;-63
2022/06/03 09:55:19;;;;;;;3.38;3.08;;;22.70;94.10;;;;;;6185536;28;89207;-63
2022/06/03 09:58:24;;;;;;;2.85;2.65;;;22.70;94.00;;;;;;6185141;28;89075;-63
2022/06/03 10:01:27;;;;;;;3.10;2.80;;;22.70;94.00;;;;;;6185118;28;89035;-63
2022/06/03 10:04:30;;;;;;;3.28;2.97;;;22.60;93.80;;;;;;6185963;28;89413;-63
2022/06/03 10:07:32;;;;;;;4.35;3.03;;;22.70;94.30;;;;;;6186106;28;88381;-63
2022/06/03 10:13:57;;;;;;;3.30;3.10;;;22.70;94.50;;;;;;6187774;28;87664;-63
2022/06/03 10:16:59;;;;;;;3.05;2.85;;;22.70;94.80;;;;;;6187846;28;90282;-63
2022/06/03 10:20:01;;;;;;;3.15;2.85;;;22.70;94.40;;;;;;6187675;28;89203;-64
2022/06/03 10:23:03;;;;;;;3.22;2.97;;;22.70;94.20;;;;;;6186878;28;89121;-64
2022/06/03 10:26:07;;;;;;;3.47;3.00;;;22.70;94.30;;;;;;6189569;28;89515;-64
2022/06/03 10:29:11;;;;;;;4.30;3.30;;;22.70;94.40;;;;;;6187794;28;89367;-63
2022/06/03 10:32:16;;;;;;;4.45;3.20;;;22.80;95.00;;;;;;6187347;28;89086;-64
2022/06/03 10:35:19;;;;;;;3.38;3.08;;;22.80;94.80;;;;;;6187507;28;88999;-63
2022/06/03 10:38:22;;;;;;;4.18;3.20;;;22.80;94.90;;;;;;6188628;28;88410;-63
2022/06/03 10:41:36;;;;;;;3.75;3.10;;;22.80;95.30;;;;;;6187813;28;89486;-65
2022/06/03 10:44:45;;;;;;;3.53;3.22;;;22.80;95.60;;;;;;6187554;28;89014;-63
2022/06/03 10:47:48;;;;;;;3.97;3.50;;;22.80;95.40;;;;;;6183750;28;90047;-63
2022/06/03 10:50:51;;;;;;;3.60;3.30;;;22.90;96.00;;;;;;6188179;28;89037;-63
2022/06/03 11:04:05;;;;;;;4.07;3.08;;;22.90;95.30;;;;;;6183696;28;87680;-63
2022/06/03 11:07:25;;;;;;;3.65;3.00;;;23.00;95.10;;;;;;6182452;28;89095;-63
2022/06/03 11:10:29;;;;;;;3.72;3.30;;;23.00;95.20;;;;;;6176280;28;88339;-63
2022/06/03 11:13:39;;;;;;;3.67;3.38;;;23.00;96.10;;;;;;6178339;28;89017;-63
2022/06/03 11:16:41;;;;;;;3.20;2.90;;;23.00;98.00;;;;;;6181378;28;89244;-63
2022/06/03 11:19:47;;;;;;;5.38;3.10;;;23.00;97.10;;;;;;6182562;28;90041;-64
2022/06/03 11:22:49;;;;;;;3.55;2.90;;;23.00;96.40;;;;;;6181606;28;89092;-64
2022/06/03 11:25:54;;;;;;;3.72;3.20;;;23.10;96.80;;;;;;6182004;28;89132;-64
2022/06/03 11:29:03;;;;;;;3.92;3.50;;;23.00;97.20;;;;;;6180142;28;88005;-63
2022/06/03 11:32:10;;;;;;;4.95;3.28;;;23.00;97.30;;;;;;6177516;28;89234;-63
2022/06/03 11:35:19;;;;;;;5.10;3.40;;;23.00;97.50;;;;;;6176269;28;89616;-64
2022/06/03 11:38:28;;;;;;;3.28;2.97;;;23.10;97.50;;;;;;6175729;28;88958;-64
2022/06/03 11:41:35;;;;;;;4.13;3.10;;;23.10;97.30;;;;;;6178061;28;88795;-63
2022/06/03 11:44:44;;;;;;;3.50;3.20;;;23.10;97.10;;;;;;6174640;28;87923;-63
2022/06/03 11:47:54;;;;;;;3.45;3.15;;;23.10;97.20;;;;;;6170700;28;88694;-63
2022/06/03 11:50:57;;;;;;;3.58;3.28;;;23.10;97.70;;;;;;6170562;28;90609;-64
2022/06/03 11:53:59;;;;;;;4.38;3.60;;;23.10;98.00;;;;;;6173504;28;89056;-64
2022/06/03 11:57:02;;;;;;;3.33;3.03;;;23.10;98.00;;;;;;6175091;28;89130;-64
2022/06/03 12:00:12;;;;;;;3.75;3.10;;;23.20;98.30;;;;;;6178084;28;89034;-64
2022/06/03 12:03:41;;;;;;;4.22;3.40;;;23.20;98.00;;;;;;6174890;28;88955;-64
2022/06/03 12:06:49;;;;;;;3.20;2.90;;;23.20;97.60;;;;;;6169478;28;89119;-64
2022/06/03 12:10:07;;;;;;;3.30;3.00;;;23.20;98.00;;;;;;6178782;28;89064;-64
2022/06/03 12:13:15;;;;;;;3.00;2.80;;;23.20;97.80;;;;;;6177443;28;88398;-64
2022/06/03 12:16:19;;;;;;;4.15;3.13;;;23.20;97.70;;;;;;6176969;28;88286;-63
2022/06/03 12:19:37;;;;;;;3.45;2.83;;;23.30;97.80;;;;;;6182314;28;89071;-63
2022/06/03 12:22:43;;;;;;;3.28;2.90;;;23.30;97.80;;;;;;6181859;28;89938;-63
2022/06/03 12:26:09;;;;;;;3.65;2.88;;;23.30;98.50;;;;;;6180158;28;90683;-64
2022/06/03 12:29:18;;;;;;;3.70;3.40;;;23.30;99.10;;;;;;6181958;28;89282;-63
2022/06/03 12:32:28;;;;;;;3.75;3.42;;;23.30;99.40;;;;;;6181822;28;88839;-64
2022/06/03 12:35:52;;;;;;;3.35;3.05;;;23.30;99.60;;;;;;6177712;28;88929;-63
2022/06/03 12:39:12;;;;;;;3.58;3.28;;;23.30;99.70;;;;;;6182491;28;87985;-64
2022/06/03 12:42:37;;;;;;;3.30;3.00;;;23.40;99.90;;;;;;6180287;28;89156;-63
2022/06/03 12:45:42;;;;;;;3.20;2.90;;;23.40;99.30;;;;;;6181705;28;87263;-63
2022/06/03 12:48:52;;;;;;;3.50;3.20;;;23.40;99.30;;;;;;6179726;28;89298;-63
2022/06/03 12:52:01;;;;;;;3.70;3.40;;;23.40;99.40;;;;;;6181501;28;89098;-63
2022/06/03 12:55:07;;;;;;;3.55;3.25;;;23.40;99.30;;;;;;6178256;28;90123;-64
2022/06/03 12:58:36;;;;;;;3.40;3.10;;;23.40;99.00;;;;;;6181350;28;89090;-63
2022/06/03 13:02:01;;;;;;;3.88;3.20;;;23.50;99.80;;;;;;6176350;28;89057;-64
2022/06/03 13:05:24;;;;;;;4.32;3.60;;;23.50;99.90;;;;;;6177708;28;88027;-64
2022/06/03 13:11:56;;;;;;;3.20;3.00;;;23.50;99.90;;;;;;6181113;28;88385;-63
2022/06/03 13:15:39;;;;;;;3.50;3.20;;;23.50;99.90;;;;;;6180052;28;89089;-64
2022/06/03 13:18:43;;;;;;;3.60;3.30;;;23.50;99.90;;;;;;6180426;28;88416;-64
2022/06/03 13:22:07;;;;;;;3.88;3.47;;;23.50;99.30;;;;;;6180945;28;87905;-64
2022/06/03 13:25:31;;;;;;;3.90;3.50;;;23.60;99.10;;;;;;6180534;28;90274;-64
2022/06/03 13:28:37;;;;;;;3.70;3.40;;;23.60;99.60;;;;;;6170402;28;90088;-63
2022/06/03 13:32:02;;;;;;;3.80;3.25;;;23.60;99.60;;;;;;6181435;28;89425;-64
2022/06/03 13:35:09;;;;;;;3.65;3.40;;;23.60;99.90;;;;;;6175672;28;87976;-64
2022/06/03 13:38:16;;;;;;;3.70;3.28;;;23.60;99.90;;;;;;6175069;28;89000;-64
2022/06/03 13:44:47;;;;;;;3.80;3.45;;;23.60;99.90;;;;;;6181008;28;87300;-64
2022/06/03 13:47:52;;;;;;;4.32;3.38;;;23.60;99.90;;;;;;6179934;28;89035;-64
2022/06/03 13:50:54;;;;;;;3.88;3.58;;;23.60;99.90;;;;;;6180396;28;88405;-64
2022/06/03 13:54:01;;;;;;;3.80;3.50;;;23.60;99.90;;;;;;6178326;28;88921;-63
2022/06/03 13:57:27;;;;;;;3.75;3.45;;;23.60;99.90;;;;;;6173693;28;88263;-64
2022/06/03 14:00:34;;;;;;;4.10;3.60;;;23.60;99.90;;;;;;6175368;28;90139;-64
2022/06/03 14:03:41;;;;;;;4.28;3.45;;;23.70;99.90;;;;;;6179787;28;89096;-63
2022/06/03 14:06:52;;;;;;;3.60;3.30;;;23.70;99.90;;;;;;6180494;28;89100;-64
2022/06/03 14:10:05;;;;;;;3.70;3.40;;;23.70;99.90;;;;;;6172885;28;88966;-64
2022/06/03 14:13:17;;;;;;;3.95;3.45;;;23.70;99.90;;;;;;6171522;28;89054;-64
2022/06/03 14:16:24;;;;;;;3.90;3.60;;;23.70;99.90;;;;;;6177640;28;89135;-64
2022/06/03 14:19:40;;;;;;;4.63;4.00;;;23.70;99.90;;;;;;6165005;28;89389;-64
2022/06/03 14:22:48;;;;;;;3.85;3.55;;;23.70;99.90;;;;;;6173774;28;88397;-63
2022/06/03 14:25:56;;;;;;;4.40;4.00;;;23.70;99.90;;;;;;6174711;28;89020;-64
2022/06/03 14:29:01;;;;;;;4.50;4.10;;;23.70;99.90;;;;;;6173873;28;89059;-63
2022/06/03 14:32:08;;;;;;;4.07;3.70;;;23.80;99.90;;;;;;6173800;28;89997;-64
2022/06/03 14:35:16;;;;;;;4.00;3.70;;;23.80;99.90;;;;;;6172262;28;89155;-64
2022/06/03 14:38:25;;;;;;;3.88;3.58;;;23.80;99.90;;;;;;6178978;28;89171;-64
2022/06/03 14:41:32;;;;;;;4.75;3.70;;;23.80;99.90;;;;;;6178678;28;89129;-64
2022/06/03 14:44:35;;;;;;;6.57;3.90;;;23.80;99.90;;;;;;6178276;28;89336;-64
2022/06/03 14:47:41;;;;;;;4.38;3.67;;;23.80;99.90;;;;;;6176640;28;89582;-65
2022/06/03 14:50:50;;;;;;;3.97;3.58;;;23.80;99.90;;;;;;6180015;28;88991;-65
2022/06/03 14:53:56;;;;;;;3.90;3.60;;;23.90;99.90;;;;;;6179661;28;88261;-65
2022/06/03 14:57:04;;;;;;;3.92;3.63;;;23.80;99.90;;;;;;6178901;28;89149;-64
2022/06/03 15:00:18;;;;;;;3.70;3.40;;;23.70;99.90;;;;;;6175996;28;89074;-64
2022/06/03 15:03:29;;;;;;;3.90;3.60;;;23.70;99.90;;;;;;6164510;28;91316;-64
2022/06/03 15:06:39;;;;;;;3.85;3.42;;;23.70;99.90;;;;;;6178995;28;89109;-64
2022/06/03 15:09:43;;;;;;;3.00;2.80;;;23.60;99.80;;;;;;6178937;28;89115;-64
2022/06/03 15:12:53;;;;;;;4.30;3.65;;;23.60;99.60;;;;;;6178950;28;89117;-64
2022/06/03 15:15:56;;;;;;;3.67;3.38;;;23.60;99.50;;;;;;6179002;28;89123;-64
2022/06/03 15:18:58;;;;;;;3.50;3.30;;;23.60;99.40;;;;;;6179468;28;89019;-65
2022/06/03 15:22:00;;;;;;;3.58;3.28;;;23.50;99.40;;;;;;6178333;28;89483;-63
2022/06/03 15:25:07;;;;;;;3.40;3.10;;;23.50;99.30;;;;;;6182407;28;88393;-64
2022/06/03 15:28:14;;;;;;;3.70;3.40;;;23.50;99.30;;;;;;6182568;28;88207;-66
2022/06/03 15:31:18;;;;;;;4.40;3.90;;;23.50;99.20;;;;;;6182244;28;89226;-66
2022/06/03 15:34:22;;;;;;;3.67;3.25;;;23.50;99.20;;;;;;6183040;28;90370;-64
2022/06/03 15:37:24;;;;;;;3.60;3.20;;;23.50;99.10;;;;;;6183113;28;89170;-64
2022/06/03 15:40:30;;;;;;;3.25;3.03;;;23.50;99.00;;;;;;6182468;28;89183;-64
2022/06/03 15:43:41;;;;;;;3.38;3.08;;;23.40;99.00;;;;;;6182866;28;89000;-64
2022/06/03 15:46:57;;;;;;;4.18;3.30;;;23.50;99.00;;;;;;6181208;28;89450;-64
2022/06/03 15:50:08;;;;;;;4.25;3.35;;;23.50;99.60;;;;;;6181461;28;88423;-65
2022/06/03 15:53:22;;;;;;;3.72;3.10;;;23.40;99.70;;;;;;6181643;28;89131;-65
2022/06/03 15:56:47;;;;;;;5.13;3.17;;;23.40;99.60;;;;;;6182554;28;88370;-64
2022/06/03 16:00:07;;;;;;;3.90;3.10;;;23.40;99.40;;;;;;6177918;28;89060;-64
2022/06/03 16:03:14;;;;;;;4.03;3.28;;;23.40;99.50;;;;;;6182100;28;89295;-64
2022/06/03 16:06:24;;;;;;;5.20;3.20;;;23.40;99.80;;;;;;6180510;28;91479;-64
2022/06/03 16:09:32;;;;;;;4.13;3.67;;;23.40;99.70;;;;;;6181894;28;87973;-64
2022/06/03 16:12:54;;;;;;;4.40;3.10;;;23.40;99.50;;;;;;6181832;28;89269;-65
2022/06/03 16:16:08;;;;;;;3.30;3.10;;;23.40;99.30;;;;;;6180600;28;87969;-64
2022/06/03 16:19:25;;;;;;;4.55;3.22;;;23.40;99.20;;;;;;6180732;28;88897;-65
2022/06/03 16:22:41;;;;;;;4.30;3.28;;;23.40;99.10;;;;;;6181111;28;88271;-64
2022/06/03 16:25:54;;;;;;;4.82;3.00;;;23.40;99.00;;;;;;6181174;28;89212;-65
2022/06/03 16:29:18;;;;;;;5.22;3.00;;;23.40;98.80;;;;;;6182376;28;88327;-64
2022/06/03 16:32:30;;;;;;;3.80;2.83;;;23.40;98.70;;;;;;6182413;28;89250;-64
2022/06/03 16:35:39;;;;;;;3.90;3.20;;;23.40;98.50;;;;;;6181177;28;89317;-64
2022/06/03 16:38:47;;;;;;;3.50;3.20;;;23.40;98.40;;;;;;6180437;28;90051;-65
2022/06/03 16:41:59;;;;;;;4.97;2.83;;;23.40;98.30;;;;;;6181234;28;89117;-64
2022/06/03 16:46:05;;;;;;;5.13;3.28;;;23.40;98.20;;;;;;6181840;28;89053;-67
2022/06/03 16:48:47;;;;;;;3.65;2.90;;;23.40;98.10;;;;;;6181399;28;88832;-64
2022/06/03 16:51:57;;;;;;;4.07;2.92;;;23.40;98.00;;;;;;6180220;28;89084;-64
2022/06/03 16:55:02;;;;;;;3.40;3.10;;;23.40;97.90;;;;;;6179971;28;87916;-64
2022/06/03 16:58:08;;;;;;;3.20;2.83;;;23.40;97.90;;;;;;6180708;28;89510;-64
2022/06/03 17:01:21;;;;;;;4.53;3.15;;;23.40;97.80;;;;;;6181809;28;88330;-65
2022/06/03 17:04:27;;;;;;;3.75;2.85;;;23.40;97.70;;;;;;6180689;28;87968;-64
2022/06/03 17:07:35;;;;;;;3.15;2.85;;;23.40;97.70;;;;;;6178262;28;89067;-64
2022/06/03 17:10:37;;;;;;;6.35;3.53;;;23.40;97.60;;;;;;6178688;28;88834;-65
2022/06/03 17:13:41;;;;;;;3.30;3.00;;;23.40;97.80;;;;;;6181130;28;89460;-65
2022/06/03 17:16:49;;;;;;;4.22;3.10;;;23.40;97.80;;;;;;6180970;28;89099;-64
2022/06/03 17:20:07;;;;;;;3.40;3.10;;;23.40;97.60;;;;;;6179927;28;89263;-65
2022/06/03 17:23:30;;;;;;;3.20;2.90;;;23.40;97.50;;;;;;6180071;28;89141;-65
2022/06/03 17:26:41;;;;;;;3.35;2.90;;;23.40;97.40;;;;;;6179410;28;89126;-65
2022/06/03 17:29:53;;;;;;;3.78;3.00;;;23.40;97.30;;;;;;6180189;28;89091;-65
2022/06/03 17:33:07;;;;;;;4.13;3.20;;;23.40;97.30;;;;;;6179922;28;88428;-65
2022/06/03 17:36:18;;;;;;;4.10;3.22;;;23.40;97.20;;;;;;6177475;28;89317;-65